Time;durP1;ratioP1;P1;durP2;ratioP2;P2;SDS_P1;SDS_P2;PMS_P1;PMS_P2;Temp;Humidity;BMP_temperature;BMP_pressure;BME280_temperature;BME280_humidity;BME280_pressure;Samples;Min_cycle;Max_cycle;Signal;HPM_P1;HPM_P2
2022/11/25 00:01:19;;;;;;;15.83;4.90;;;-8.60;99.90;;;;;;5088582;28;20183;-75
2022/11/25 00:03:45;;;;;;;12.43;3.57;;;-7.30;99.90;;;;;;5086214;28;20194;-75
2022/11/25 00:06:11;;;;;;;15.00;4.00;;;-4.70;99.90;;;;;;5087781;28;20617;-75
2022/11/25 00:08:38;;;;;;;15.63;3.57;;;-6.20;99.90;;;;;;5088503;28;20194;-75
2022/11/25 00:11:05;;;;;;;13.13;4.73;;;-5.70;99.90;;;;;;5095510;28;20188;-79
2022/11/25 00:13:31;;;;;;;15.67;3.47;;;-7.20;99.90;;;;;;5092557;28;20482;-77
2022/11/25 00:16:02;;;;;;;13.40;4.30;;;-5.10;99.90;;;;;;5093691;28;20274;-74
2022/11/25 00:18:28;;;;;;;15.17;3.77;;;-3.70;99.90;;;;;;5080972;28;20540;-78
2022/11/25 00:20:54;;;;;;;24.00;5.23;;;-8.30;99.90;;;;;;5086937;28;20487;-77
2022/11/25 00:23:20;;;;;;;19.63;4.50;;;-7.90;99.90;;;;;;5090125;28;20182;-77
2022/11/25 00:25:46;;;;;;;16.70;3.97;;;-6.10;99.90;;;;;;5095077;28;20352;-76
2022/11/25 00:28:12;;;;;;;9.97;3.80;;;-6.90;99.90;;;;;;5095263;28;20621;-76
2022/11/25 00:30:38;;;;;;;22.60;4.50;;;-3.70;99.90;;;;;;5089707;28;20178;-77
2022/11/25 00:33:03;;;;;;;13.10;4.73;;;-4.40;99.90;;;;;;5093912;28;20186;-79
2022/11/25 00:35:29;;;;;;;13.93;4.07;;;-3.70;99.90;;;;;;5080912;28;20182;-76
2022/11/25 00:37:55;;;;;;;12.80;3.30;;;-5.00;99.90;;;;;;5090736;28;20186;-77
2022/11/25 00:40:21;;;;;;;11.60;3.37;;;-7.10;99.90;;;;;;5094509;28;20194;-75
2022/11/25 00:45:31;;;;;;;10.60;4.40;;;-7.60;99.90;;;;;;5081263;28;20645;-76
2022/11/25 00:47:57;;;;;;;21.43;3.67;;;-5.90;99.90;;;;;;5091108;28;20174;-76
2022/11/25 00:50:22;;;;;;;21.10;8.57;;;-6.80;99.90;;;;;;5080893;28;20491;-78
2022/11/25 00:52:48;;;;;;;22.30;7.00;;;-5.20;99.90;;;;;;5081930;28;20199;-76
2022/11/25 00:55:14;;;;;;;15.80;8.47;;;-5.60;99.90;;;;;;5090842;28;20604;-74
2022/11/25 00:57:40;;;;;;;4.47;1.60;;;-6.70;99.90;;;;;;5094202;28;20175;-78
2022/11/25 01:00:07;;;;;;;8.63;1.97;;;-7.70;99.90;;;;;;5098540;28;20199;-77
2022/11/25 01:02:32;;;;;;;19.17;3.33;;;-8.60;99.90;;;;;;5093646;28;20612;-78
2022/11/25 01:04:58;;;;;;;6.10;1.17;;;-6.90;99.90;;;;;;5096315;28;20238;-76
2022/11/25 01:07:24;;;;;;;8.83;1.77;;;-6.40;99.90;;;;;;5097838;28;20185;-82
2022/11/25 01:09:49;;;;;;;4.07;1.33;;;-4.30;99.90;;;;;;5093324;28;20184;-75
2022/11/25 01:12:15;;;;;;;4.93;1.30;;;-7.90;99.90;;;;;;5094695;28;20179;-76
2022/11/25 01:14:41;;;;;;;3.67;0.90;;;-7.60;99.90;;;;;;5092774;28;20179;-83
2022/11/25 01:17:07;;;;;;;2.47;1.17;;;-6.70;99.90;;;;;;5098562;28;20234;-78
2022/11/25 01:19:37;;;;;;;2.70;1.30;;;-5.80;99.90;;;;;;5098651;28;20216;-79
2022/11/25 01:22:02;;;;;;;5.20;1.60;;;-4.20;99.90;;;;;;5098256;28;20184;-80
2022/11/25 01:24:28;;;;;;;3.60;1.13;;;-4.60;99.90;;;;;;5098337;28;20175;-75
2022/11/25 01:26:54;;;;;;;2.33;0.97;;;-4.50;99.90;;;;;;5098060;28;20209;-75
2022/11/25 01:29:20;;;;;;;10.80;2.30;;;-5.90;99.90;;;;;;5094943;28;20759;-76
2022/11/25 01:31:47;;;;;;;3.93;1.50;;;-4.90;99.90;;;;;;5089910;28;20229;-77
2022/11/25 01:34:19;;;;;;;1.63;0.90;;;-5.00;99.90;;;;;;5090877;28;20219;-77
2022/11/25 01:36:45;;;;;;;2.57;1.97;;;-6.40;99.90;;;;;;5091535;28;20221;-76
2022/11/25 01:39:20;;;;;;;6.43;1.27;;;-4.10;99.90;;;;;;5088207;28;20204;-78
2022/11/25 01:41:47;;;;;;;5.17;2.07;;;-6.90;99.90;;;;;;5092608;28;20207;-77
2022/11/25 01:44:21;;;;;;;2.87;1.63;;;-3.10;99.90;;;;;;5096054;28;20193;-79
2022/11/25 01:47:00;;;;;;;1.17;1.07;;;-4.80;99.90;;;;;;5085205;28;20499;-76
2022/11/25 01:49:29;;;;;;;1.70;0.90;;;-4.50;99.90;;;;;;5090419;28;20182;-78
2022/11/25 01:52:14;;;;;;;10.23;2.30;;;-5.30;99.90;;;;;;5095003;28;20817;-76
2022/11/25 01:54:50;;;;;;;4.33;1.40;;;-4.90;99.90;;;;;;5089758;28;20246;-76
2022/11/25 01:57:30;;;;;;;3.83;1.50;;;-5.20;99.90;;;;;;5095554;28;20594;-79
2022/11/25 02:00:00;;;;;;;1.50;1.00;;;-5.20;99.90;;;;;;5092415;28;20248;-78
2022/11/25 02:02:27;;;;;;;4.07;1.60;;;-3.00;99.90;;;;;;5089366;28;20193;-78
2022/11/25 02:04:54;;;;;;;4.87;1.43;;;-4.20;99.90;;;;;;5090380;28;20191;-77
2022/11/25 02:07:35;;;;;;;2.90;1.17;;;-4.00;99.90;;;;;;5079387;28;20550;-77
2022/11/25 02:10:05;;;;;;;1.90;1.10;;;-4.90;99.90;;;;;;5093274;28;20194;-74
2022/11/25 02:12:33;;;;;;;1.67;1.00;;;-5.50;99.90;;;;;;5096798;28;20498;-76
2022/11/25 02:14:59;;;;;;;3.43;1.60;;;-6.90;99.90;;;;;;5097478;28;20202;-76
2022/11/25 02:17:25;;;;;;;5.77;1.60;;;-6.10;99.90;;;;;;5092248;28;20178;-74
2022/11/25 02:20:16;;;;;;;6.10;0.90;;;-7.50;99.90;;;;;;5097370;28;20179;-75
2022/11/25 02:23:13;;;;;;;2.83;0.83;;;-8.80;99.90;;;;;;5080137;28;20248;-78
2022/11/25 02:25:40;;;;;;;0.67;0.67;;;-7.90;99.90;;;;;;5093496;28;20233;-77
2022/11/25 02:28:22;;;;;;;3.57;1.20;;;-7.80;99.90;;;;;;5096857;28;20178;-78
2022/11/25 02:30:49;;;;;;;4.53;1.47;;;-7.50;99.90;;;;;;5083301;28;20258;-79
2022/11/25 02:33:15;;;;;;;4.50;1.00;;;-7.80;99.90;;;;;;5090217;28;20197;-77
2022/11/25 02:35:47;;;;;;;1.23;1.00;;;-7.70;99.90;;;;;;5094591;28;20189;-77
2022/11/25 02:38:21;;;;;;;2.10;1.20;;;-8.50;99.90;;;;;;5085679;28;20197;-79
2022/11/25 02:40:53;;;;;;;3.10;1.23;;;-7.90;99.90;;;;;;5083515;28;20221;-79
2022/11/25 02:43:18;;;;;;;5.60;1.63;;;-7.10;99.90;;;;;;5093010;28;20618;-78
2022/11/25 02:45:59;;;;;;;2.50;1.27;;;-7.70;99.90;;;;;;5089883;28;20210;-79
2022/11/25 02:48:27;;;;;;;6.93;1.30;;;-7.30;99.90;;;;;;5094349;28;20214;-79
2022/11/25 02:50:53;;;;;;;4.20;1.07;;;-7.20;99.90;;;;;;5095462;28;20182;-78
2022/11/25 02:53:19;;;;;;;1.97;1.03;;;-5.80;99.90;;;;;;5094947;28;20611;-78
2022/11/25 02:55:45;;;;;;;3.33;1.00;;;-7.70;99.90;;;;;;5093603;28;20178;-76
2022/11/25 02:58:11;;;;;;;2.37;1.10;;;-8.60;99.90;;;;;;5093006;28;20193;-78
2022/11/25 03:00:38;;;;;;;3.27;0.83;;;-7.10;99.90;;;;;;5088255;28;20200;-77
2022/11/25 03:03:04;;;;;;;2.97;1.60;;;-7.90;99.90;;;;;;5092307;28;20191;-78
2022/11/25 03:05:30;;;;;;;3.47;1.20;;;-7.20;99.90;;;;;;5096524;28;20196;-78
2022/11/25 03:07:56;;;;;;;4.40;1.30;;;-9.10;99.90;;;;;;5096381;28;20178;-78
2022/11/25 03:10:22;;;;;;;3.67;2.00;;;-8.40;99.90;;;;;;5096097;28;20463;-79
2022/11/25 03:12:49;;;;;;;1.47;1.37;;;-7.10;99.90;;;;;;5096194;28;20179;-79
2022/11/25 03:15:14;;;;;;;5.67;2.17;;;-7.60;99.90;;;;;;5096683;28;20182;-78
2022/11/25 03:17:41;;;;;;;2.30;1.30;;;-6.90;99.90;;;;;;5089088;28;20177;-76
2022/11/25 03:20:08;;;;;;;15.53;2.20;;;-4.90;99.90;;;;;;5088130;28;20175;-78
2022/11/25 03:22:34;;;;;;;6.17;2.27;;;-6.80;99.90;;;;;;5089958;28;20259;-78
2022/11/25 03:25:00;;;;;;;11.97;2.87;;;-5.80;99.90;;;;;;5088200;28;20192;-80
2022/11/25 03:27:25;;;;;;;9.07;2.73;;;-6.50;99.90;;;;;;5090283;28;20528;-79
2022/11/25 03:29:51;;;;;;;7.37;2.33;;;-4.70;99.90;;;;;;5096147;28;20182;-78
2022/11/25 03:32:17;;;;;;;11.03;2.97;;;-4.40;99.90;;;;;;5087695;28;20187;-79
2022/11/25 03:34:42;;;;;;;4.10;2.20;;;-5.10;99.90;;;;;;5092091;28;20175;-79
2022/11/25 03:37:08;;;;;;;3.83;2.30;;;-5.60;99.90;;;;;;5089854;28;20191;-78
2022/11/25 03:39:34;;;;;;;9.37;2.60;;;-5.00;99.90;;;;;;5087416;28;20166;-80
2022/11/25 03:42:00;;;;;;;6.00;2.43;;;-6.40;99.90;;;;;;5090705;28;20409;-78
2022/11/25 03:44:26;;;;;;;10.87;3.20;;;-7.10;99.90;;;;;;5095686;28;20513;-77
2022/11/25 03:46:51;;;;;;;5.90;2.90;;;-6.80;99.90;;;;;;5090318;28;20608;-75
2022/11/25 03:49:17;;;;;;;6.10;2.77;;;-6.00;99.90;;;;;;5087098;28;20315;-77
2022/11/25 03:51:43;;;;;;;8.70;2.73;;;-6.60;99.90;;;;;;5084553;28;20186;-78
2022/11/25 03:54:09;;;;;;;6.53;2.73;;;-6.90;99.90;;;;;;5087209;28;20533;-77
2022/11/25 03:56:35;;;;;;;4.90;2.20;;;-9.20;99.90;;;;;;5095637;28;20190;-77
2022/11/25 03:59:01;;;;;;;7.47;2.47;;;-6.10;99.90;;;;;;5095128;28;20192;-77
2022/11/25 04:01:26;;;;;;;9.27;3.53;;;-7.80;99.90;;;;;;5090574;28;20178;-78
2022/11/25 04:03:52;;;;;;;11.13;3.00;;;-8.40;99.90;;;;;;5090067;28;20256;-78
2022/11/25 04:06:20;;;;;;;14.10;3.63;;;-8.60;99.90;;;;;;5085126;28;20546;-79
2022/11/25 04:08:48;;;;;;;13.67;4.73;;;-9.00;99.90;;;;;;5097013;28;20200;-78
2022/11/25 04:11:13;;;;;;;7.90;2.67;;;-8.20;99.90;;;;;;5098252;28;20175;-78
2022/11/25 04:13:39;;;;;;;12.00;2.67;;;-5.80;99.90;;;;;;5091337;28;20584;-80
2022/11/25 04:16:05;;;;;;;20.17;3.57;;;-8.80;99.90;;;;;;5092784;28;20246;-80
2022/11/25 04:18:31;;;;;;;9.67;2.73;;;-8.30;99.90;;;;;;5098415;28;20205;-79
2022/11/25 04:20:57;;;;;;;8.33;2.93;;;-7.00;99.90;;;;;;5090469;28;20269;-80
2022/11/25 04:23:23;;;;;;;12.87;2.90;;;-7.50;99.90;;;;;;5089237;28;20530;-81
2022/11/25 04:25:50;;;;;;;8.47;2.80;;;-8.10;99.90;;;;;;5086996;28;20217;-80
2022/11/25 04:28:16;;;;;;;8.13;3.00;;;-7.40;99.90;;;;;;5094464;28;20187;-77
2022/11/25 04:30:41;;;;;;;6.67;2.63;;;-7.80;99.90;;;;;;5098415;28;20187;-79
2022/11/25 04:33:07;;;;;;;7.20;2.47;;;-7.80;99.90;;;;;;5096839;28;20195;-79
2022/11/25 04:35:33;;;;;;;17.47;4.13;;;-6.10;99.90;;;;;;5093074;28;20193;-77
2022/11/25 04:37:59;;;;;;;13.40;2.97;;;-7.30;99.90;;;;;;5092201;28;20330;-78
2022/11/25 04:40:25;;;;;;;10.43;2.80;;;-7.70;99.90;;;;;;5095822;28;20211;-79
2022/11/25 04:42:50;;;;;;;6.10;3.13;;;-6.30;99.90;;;;;;5092099;28;20192;-78
2022/11/25 04:45:17;;;;;;;8.40;3.83;;;-9.00;99.90;;;;;;5095272;28;20260;-79
2022/11/25 04:47:44;;;;;;;10.77;3.43;;;-9.00;99.90;;;;;;5095983;28;20259;-77
2022/11/25 04:50:17;;;;;;;8.03;2.97;;;-7.40;99.90;;;;;;5095103;28;20194;-78
2022/11/25 04:52:43;;;;;;;8.50;2.57;;;-7.80;99.90;;;;;;5094652;28;20202;-79
2022/11/25 04:55:09;;;;;;;22.60;4.27;;;-8.20;99.90;;;;;;5094196;28;20183;-76
2022/11/25 04:57:36;;;;;;;3.77;2.03;;;-6.60;99.90;;;;;;5094935;28;20175;-79
2022/11/25 05:00:02;;;;;;;7.90;3.30;;;-6.60;99.90;;;;;;5094424;28;20182;-78
2022/11/25 05:02:29;;;;;;;10.50;2.40;;;-8.70;99.90;;;;;;5088519;28;20201;-79
2022/11/25 05:04:56;;;;;;;9.30;2.60;;;-7.60;99.90;;;;;;5082190;28;20569;-80
2022/11/25 05:07:24;;;;;;;6.97;3.43;;;-5.90;99.90;;;;;;5084865;28;20207;-78
2022/11/25 05:09:50;;;;;;;9.53;2.47;;;-6.10;99.90;;;;;;5088732;28;20186;-76
2022/11/25 05:12:19;;;;;;;12.33;4.73;;;-6.80;99.90;;;;;;5080096;28;20191;-78
2022/11/25 05:14:46;;;;;;;11.83;3.43;;;-6.60;99.90;;;;;;5094422;28;20209;-80
2022/11/25 05:17:23;;;;;;;10.53;3.10;;;-6.70;99.90;;;;;;5094765;28;20218;-78
2022/11/25 05:19:50;;;;;;;7.47;2.83;;;-6.10;99.90;;;;;;5087280;28;20182;-79
2022/11/25 05:22:37;;;;;;;10.37;2.97;;;-6.60;99.90;;;;;;5082303;28;20199;-79
2022/11/25 05:25:06;;;;;;;15.23;3.03;;;-6.00;99.90;;;;;;5084804;28;20195;-81
2022/11/25 05:27:33;;;;;;;16.37;4.43;;;-6.70;99.90;;;;;;5085349;28;20176;-81
2022/11/25 05:29:59;;;;;;;7.27;2.57;;;-8.30;99.90;;;;;;5091219;28;20175;-81
2022/11/25 05:32:25;;;;;;;13.47;3.23;;;-8.20;99.90;;;;;;5094127;28;20186;-81
2022/11/25 05:34:50;;;;;;;5.10;2.43;;;-9.00;99.90;;;;;;5089060;28;20186;-81
2022/11/25 05:37:16;;;;;;;11.70;3.40;;;-8.70;99.90;;;;;;5087524;28;20194;-79
2022/11/25 05:39:42;;;;;;;8.70;4.10;;;-6.00;99.90;;;;;;5083538;28;20186;-79
2022/11/25 05:42:08;;;;;;;8.90;2.67;;;-6.20;99.90;;;;;;5097250;28;20197;-78
2022/11/25 05:44:34;;;;;;;8.73;3.07;;;-7.50;99.90;;;;;;5104542;28;20190;-79
2022/11/25 05:47:00;;;;;;;4.37;2.07;;;-9.30;99.90;;;;;;5097352;28;20207;-80
2022/11/25 05:49:26;;;;;;;6.17;2.33;;;-4.90;99.90;;;;;;5092194;28;20288;-80
2022/11/25 05:51:51;;;;;;;12.90;2.83;;;-8.50;99.90;;;;;;5098283;28;20230;-80
2022/11/25 05:54:17;;;;;;;8.67;2.33;;;-8.80;99.90;;;;;;5087876;28;20211;-80
2022/11/25 05:56:43;;;;;;;9.23;3.30;;;-5.80;99.90;;;;;;5097797;28;20180;-78
2022/11/25 05:59:09;;;;;;;11.93;3.27;;;-6.80;99.90;;;;;;5097973;28;20210;-76
2022/11/25 06:01:35;;;;;;;9.50;2.97;;;-7.60;99.90;;;;;;5093669;28;20187;-77
2022/11/25 06:04:03;;;;;;;10.03;2.67;;;-8.30;99.90;;;;;;5086189;28;20217;-78
2022/11/25 06:06:30;;;;;;;8.57;2.43;;;-7.00;99.90;;;;;;5086707;28;20203;-77
2022/11/25 06:08:59;;;;;;;11.73;2.70;;;-6.50;99.90;;;;;;5104000;27;20548;-79
2022/11/25 06:11:25;;;;;;;19.40;3.80;;;-7.00;99.90;;;;;;5086629;28;20182;-79
2022/11/25 06:13:51;;;;;;;7.63;2.40;;;-5.20;99.90;;;;;;5088859;28;20270;-76
2022/11/25 06:16:19;;;;;;;10.77;2.80;;;-7.60;99.90;;;;;;5096880;28;20266;-81
2022/11/25 06:18:45;;;;;;;8.60;3.67;;;-8.30;99.90;;;;;;5091792;28;20171;-75
2022/11/25 06:21:15;;;;;;;10.00;3.07;;;-8.10;99.90;;;;;;5093132;28;20201;-79
2022/11/25 06:23:43;;;;;;;9.80;2.97;;;-7.80;99.90;;;;;;5092590;28;20221;-76
2022/11/25 06:26:16;;;;;;;6.80;3.27;;;-6.90;99.90;;;;;;5092834;28;20502;-78
2022/11/25 06:28:46;;;;;;;9.13;3.30;;;-6.80;99.90;;;;;;5095983;28;20174;-75
2022/11/25 06:31:19;;;;;;;14.03;3.13;;;-7.40;99.90;;;;;;5097477;28;20183;-78
2022/11/25 06:33:47;;;;;;;12.23;3.40;;;-7.80;99.90;;;;;;5095638;28;20216;-79
2022/11/25 06:36:22;;;;;;;10.60;3.50;;;-7.30;99.90;;;;;;5090154;28;20226;-78
2022/11/25 06:38:50;;;;;;;16.70;4.00;;;-7.90;99.90;;;;;;5093576;28;20182;-78
2022/11/25 06:41:21;;;;;;;10.03;3.23;;;-8.40;99.90;;;;;;5097029;28;20215;-76
2022/11/25 06:43:47;;;;;;;9.10;3.40;;;-8.80;99.90;;;;;;5085477;28;20286;-76
2022/11/25 06:46:15;;;;;;;11.70;3.50;;;-8.10;99.90;;;;;;5089060;28;20207;-75
2022/11/25 06:48:44;;;;;;;12.43;3.63;;;-6.60;99.90;;;;;;5082727;28;20180;-73
2022/11/25 06:51:12;;;;;;;19.40;4.67;;;-7.10;99.90;;;;;;5105178;28;20575;-76
2022/11/25 06:53:43;;;;;;;9.27;4.30;;;-7.00;99.90;;;;;;5092552;28;20206;-74
2022/11/25 06:56:16;;;;;;;6.63;2.97;;;-8.20;99.90;;;;;;5096454;28;20616;-75
2022/11/25 06:58:43;;;;;;;9.63;2.97;;;-4.40;99.90;;;;;;5086410;28;20209;-75
2022/11/25 07:01:18;;;;;;;8.07;3.40;;;-4.10;99.90;;;;;;5084663;28;20191;-78
2022/11/25 07:03:46;;;;;;;11.83;3.60;;;-5.80;99.90;;;;;;5092725;28;20289;-78
2022/11/25 07:06:13;;;;;;;11.87;4.00;;;-6.90;99.90;;;;;;5083829;28;20529;-77
2022/11/25 07:08:39;;;;;;;7.27;3.47;;;-5.70;99.90;;;;;;5095574;28;20269;-79
2022/11/25 07:11:07;;;;;;;18.43;4.43;;;-6.90;99.90;;;;;;5095836;28;20605;-78
2022/11/25 07:13:33;;;;;;;17.03;4.97;;;-6.40;99.90;;;;;;5089538;28;20273;-79
2022/11/25 07:16:03;;;;;;;8.17;2.97;;;-6.70;99.90;;;;;;5093852;28;20278;-78
2022/11/25 07:18:34;;;;;;;10.97;3.90;;;-6.50;99.90;;;;;;5080431;28;20179;-76
2022/11/25 07:21:05;;;;;;;10.97;3.90;;;-7.40;99.90;;;;;;5090868;28;20190;-79
2022/11/25 07:23:32;;;;;;;16.53;4.40;;;-6.50;99.90;;;;;;5091956;28;20180;-78
2022/11/25 07:26:07;;;;;;;26.60;5.33;;;-7.80;99.90;;;;;;5095982;28;20209;-79
2022/11/25 07:28:34;;;;;;;10.27;3.70;;;-6.60;99.90;;;;;;5091059;28;20211;-80
2022/11/25 07:31:15;;;;;;;17.33;3.00;;;-5.50;99.90;;;;;;5092375;28;20193;-73
2022/11/25 07:33:41;;;;;;;9.50;3.43;;;-6.00;99.90;;;;;;5085213;28;20179;-72
2022/11/25 07:36:09;;;;;;;13.97;3.53;;;-7.20;99.90;;;;;;5095101;28;20190;-74
2022/11/25 07:38:36;;;;;;;13.23;3.47;;;-8.10;99.90;;;;;;5094262;28;20471;-73
2022/11/25 07:41:06;;;;;;;12.17;5.07;;;-7.00;99.90;;;;;;5089425;28;20518;-72
2022/11/25 07:43:32;;;;;;;15.53;4.80;;;-7.10;99.90;;;;;;5081753;28;20193;-72
2022/11/25 07:46:16;;;;;;;14.87;5.67;;;-6.70;99.90;;;;;;5093658;28;20202;-71
2022/11/25 07:48:42;;;;;;;15.40;4.20;;;-7.80;99.90;;;;;;5082137;28;20574;-73
2022/11/25 07:51:21;;;;;;;10.27;4.57;;;-6.80;99.90;;;;;;5082332;28;20198;-74
2022/11/25 07:53:48;;;;;;;9.33;3.87;;;-6.00;99.90;;;;;;5093721;28;20568;-75
2022/11/25 07:56:14;;;;;;;18.83;4.23;;;-7.20;99.90;;;;;;5091296;28;20598;-75
2022/11/25 07:58:41;;;;;;;15.43;4.77;;;-8.40;99.90;;;;;;5094649;28;20182;-72
2022/11/25 08:01:08;;;;;;;16.60;4.87;;;-8.00;99.90;;;;;;5090730;28;20578;-74
2022/11/25 08:03:36;;;;;;;17.47;3.57;;;-6.80;99.90;;;;;;5092688;28;20229;-74
2022/11/25 08:06:11;;;;;;;27.57;6.67;;;-6.40;99.90;;;;;;5091787;28;20325;-72
2022/11/25 08:08:38;;;;;;;16.93;4.07;;;-7.60;99.90;;;;;;5095013;28;20212;-74
2022/11/25 08:11:07;;;;;;;14.17;3.63;;;-7.90;99.90;;;;;;5090161;28;20222;-74
2022/11/25 08:13:33;;;;;;;17.53;5.70;;;-6.30;99.90;;;;;;5089986;28;20186;-73
2022/11/25 08:15:59;;;;;;;17.93;4.53;;;-6.50;99.90;;;;;;5081447;28;20520;-72
2022/11/25 08:18:25;;;;;;;13.30;3.70;;;-5.60;99.90;;;;;;5094224;28;20221;-75
2022/11/25 08:20:51;;;;;;;23.23;4.50;;;-7.90;99.90;;;;;;5095285;28;20206;-74
2022/11/25 08:23:17;;;;;;;12.90;4.97;;;-7.90;99.90;;;;;;5094923;28;20194;-74
2022/11/25 08:25:43;;;;;;;17.47;4.00;;;-8.30;99.90;;;;;;5095013;28;20206;-73
2022/11/25 08:28:09;;;;;;;16.33;5.97;;;-8.80;99.90;;;;;;5091444;28;20183;-74
2022/11/25 08:30:35;;;;;;;14.80;4.63;;;-9.20;99.90;;;;;;5087538;28;20178;-76
2022/11/25 08:33:03;;;;;;;16.53;6.20;;;-9.50;99.90;;;;;;5085887;28;20179;-76
2022/11/25 08:35:30;;;;;;;13.53;4.70;;;-10.50;99.90;;;;;;5086827;28;20171;-74
2022/11/25 08:37:56;;;;;;;17.50;6.47;;;-9.90;99.90;;;;;;5085875;28;20246;-73
2022/11/25 08:40:21;;;;;;;14.40;4.83;;;-11.40;99.90;;;;;;5095118;28;20270;-74
2022/11/25 08:42:47;;;;;;;14.13;4.93;;;-10.50;99.90;;;;;;5094599;28;20208;-73
2022/11/25 08:45:13;;;;;;;13.67;5.80;;;-11.40;99.90;;;;;;5083520;28;20191;-76
2022/11/25 08:47:38;;;;;;;20.47;6.63;;;-11.40;99.90;;;;;;5089139;28;20794;-76
2022/11/25 08:50:09;;;;;;;19.93;6.67;;;-10.80;99.90;;;;;;5087399;28;20182;-74
2022/11/25 08:52:35;;;;;;;15.03;5.23;;;-10.40;99.90;;;;;;5088445;28;20643;-75
2022/11/25 08:55:01;;;;;;;16.80;5.40;;;-9.50;99.90;;;;;;5088860;28;20581;-78
2022/11/25 08:57:27;;;;;;;16.53;4.63;;;-10.50;99.90;;;;;;5094790;28;20198;-75
2022/11/25 08:59:52;;;;;;;11.03;4.20;;;-10.00;99.90;;;;;;5094339;28;20190;-76
2022/11/25 09:02:18;;;;;;;10.90;4.30;;;-10.80;99.90;;;;;;5090886;28;20206;-74
2022/11/25 09:04:44;;;;;;;9.07;3.60;;;-10.80;99.90;;;;;;5087114;28;20191;-77
2022/11/25 09:07:10;;;;;;;16.53;5.00;;;-8.70;99.90;;;;;;5076103;28;20614;-77
2022/11/25 09:09:36;;;;;;;20.40;4.73;;;-9.10;99.90;;;;;;5091000;28;20186;-73
2022/11/25 09:12:02;;;;;;;10.43;3.23;;;-8.50;99.90;;;;;;5094880;28;20191;-78
2022/11/25 09:14:28;;;;;;;10.90;4.13;;;-8.20;99.90;;;;;;5094499;28;20626;-73
2022/11/25 09:16:55;;;;;;;6.80;3.27;;;-9.00;99.90;;;;;;5092976;28;20188;-74
2022/11/25 09:19:22;;;;;;;13.53;3.73;;;-9.90;99.90;;;;;;5097978;28;20185;-73
2022/11/25 09:21:48;;;;;;;9.57;3.13;;;-9.90;99.90;;;;;;5091152;28;20180;-73
2022/11/25 09:24:14;;;;;;;11.67;3.90;;;-9.10;99.90;;;;;;5090749;28;20658;-76
2022/11/25 09:26:41;;;;;;;6.23;2.33;;;-8.70;99.90;;;;;;5098585;28;20213;-73
2022/11/25 09:29:07;;;;;;;10.73;3.17;;;-10.00;99.90;;;;;;5098091;28;20174;-73
2022/11/25 09:31:33;;;;;;;6.50;3.13;;;-9.30;99.90;;;;;;5090531;28;20229;-75
2022/11/25 09:33:59;;;;;;;9.87;3.20;;;-10.10;99.90;;;;;;5094669;28;20572;-75
2022/11/25 09:36:25;;;;;;;4.70;3.17;;;-9.30;99.90;;;;;;5086597;28;20560;-75
2022/11/25 09:38:51;;;;;;;10.87;3.20;;;-11.20;99.90;;;;;;5088968;28;20184;-74
2022/11/25 09:46:40;;;;;;;16.13;3.00;;;-11.50;99.90;;;;;;5089086;28;20587;-76
2022/11/25 09:47:42;;;;;;;6.13;2.57;;;-11.70;99.90;;;;;;5088626;28;20452;-73
2022/11/25 09:50:34;;;;;;;7.87;2.83;;;-11.00;99.90;;;;;;5062334;28;20256;-73
2022/11/25 09:53:16;;;;;;;8.27;3.00;;;-11.20;99.90;;;;;;5084864;28;20219;-74
2022/11/25 09:55:46;;;;;;;10.90;3.13;;;-11.10;99.90;;;;;;5096784;28;20182;-75
2022/11/25 09:58:38;;;;;;;18.80;3.53;;;-10.50;99.90;;;;;;5090425;28;20187;-75
2022/11/25 10:01:15;;;;;;;7.70;2.30;;;-10.90;99.90;;;;;;5096776;28;20537;-73
2022/11/25 10:04:03;;;;;;;9.03;3.17;;;-10.40;99.90;;;;;;5095859;28;20193;-75
2022/11/25 10:06:34;;;;;;;2.83;1.77;;;-10.90;99.90;;;;;;5096181;28;20208;-75
2022/11/25 10:09:13;;;;;;;10.33;2.70;;;-10.90;99.90;;;;;;5091537;28;20211;-73
2022/11/25 10:11:57;;;;;;;4.73;2.13;;;-10.80;99.90;;;;;;5095920;28;20594;-73
2022/11/25 10:14:26;;;;;;;11.90;2.57;;;-11.10;99.90;;;;;;5092046;28;20195;-73
2022/11/25 10:16:54;;;;;;;5.57;1.50;;;-11.10;99.90;;;;;;5088941;28;20528;-73
2022/11/25 10:19:32;;;;;;;7.73;2.03;;;-11.00;99.90;;;;;;5086202;28;20183;-74
2022/11/25 10:21:58;;;;;;;5.73;2.30;;;-11.60;99.90;;;;;;5089854;28;20597;-74
2022/11/25 10:24:24;;;;;;;4.80;1.63;;;-10.70;99.90;;;;;;5095021;28;20179;-75
2022/11/25 10:26:58;;;;;;;4.90;1.90;;;-10.70;99.90;;;;;;5094566;28;20539;-75
2022/11/25 10:29:29;;;;;;;6.03;1.77;;;-10.80;99.90;;;;;;5084371;28;20457;-75
2022/11/25 10:32:26;;;;;;;5.50;1.70;;;-10.80;99.90;;;;;;5084512;28;20307;-72
2022/11/25 10:34:59;;;;;;;2.00;1.47;;;-9.30;99.90;;;;;;5080655;28;20486;-73
2022/11/25 10:37:37;;;;;;;11.23;2.27;;;-10.50;99.90;;;;;;5091076;28;20192;-73
2022/11/25 10:40:03;;;;;;;7.00;1.90;;;-10.70;99.90;;;;;;5096466;28;20185;-74
2022/11/25 10:42:31;;;;;;;13.13;2.97;;;-10.50;99.90;;;;;;5095422;28;20183;-74
2022/11/25 10:44:57;;;;;;;11.97;3.47;;;-9.60;99.90;;;;;;5092314;28;20729;-75
2022/11/25 10:48:15;;;;;;;4.30;1.93;;;-9.30;99.90;;;;;;5083993;28;20289;-75
2022/11/25 10:51:22;;;;;;;8.50;1.77;;;-10.00;99.90;;;;;;5092688;28;20208;-79
2022/11/25 10:54:18;;;;;;;7.33;2.47;;;-10.70;99.90;;;;;;5096404;28;20246;-71
2022/11/25 10:56:53;;;;;;;7.30;3.70;;;-10.00;99.90;;;;;;5090521;28;20173;-73
2022/11/25 10:59:26;;;;;;;6.73;2.90;;;-9.70;99.90;;;;;;5092502;28;20303;-74
2022/11/25 11:01:53;;;;;;;6.83;2.83;;;-9.30;99.90;;;;;;5096802;28;20225;-73
2022/11/25 11:04:20;;;;;;;10.50;2.77;;;-10.00;99.90;;;;;;5081976;28;20205;-78
2022/11/25 11:06:48;;;;;;;6.40;2.20;;;-9.50;99.90;;;;;;5090880;28;20213;-78
2022/11/25 11:09:39;;;;;;;9.87;2.90;;;-8.20;99.90;;;;;;5094637;28;20186;-76
2022/11/25 11:12:20;;;;;;;7.50;2.43;;;-9.20;99.90;;;;;;5088240;28;20228;-76
2022/11/25 11:14:47;;;;;;;9.83;2.47;;;-8.40;99.90;;;;;;5083943;28;20178;-75
2022/11/25 11:17:32;;;;;;;4.47;1.83;;;-8.60;99.90;;;;;;5095807;28;20191;-80
2022/11/25 11:20:13;;;;;;;17.37;3.30;;;-7.90;99.90;;;;;;5088658;28;20198;-79
2022/11/25 11:22:47;;;;;;;14.30;2.97;;;-10.20;99.90;;;;;;5082479;28;20212;-81
2022/11/25 11:25:19;;;;;;;9.40;3.00;;;-9.20;99.90;;;;;;5092426;28;20198;-78
2022/11/25 11:27:45;;;;;;;6.33;3.00;;;-9.70;99.90;;;;;;5089333;28;20454;-78
2022/11/25 11:30:16;;;;;;;11.50;3.37;;;-9.50;99.90;;;;;;5090604;28;20490;-74
2022/11/25 11:33:04;;;;;;;16.57;4.73;;;-9.00;99.90;;;;;;5091141;28;20180;-74
2022/11/25 11:35:51;;;;;;;8.37;3.50;;;-9.80;99.90;;;;;;5090856;28;20337;-76
2022/11/25 11:38:22;;;;;;;8.00;3.83;;;-10.20;99.90;;;;;;5081863;28;20218;-79
2022/11/25 11:40:54;;;;;;;11.80;2.50;;;-9.30;99.90;;;;;;5089531;28;20181;-78
2022/11/25 11:44:03;;;;;;;12.90;4.10;;;-8.70;99.90;;;;;;5088290;28;20172;-75
2022/11/25 11:46:32;;;;;;;9.63;2.70;;;-9.30;99.90;;;;;;5085418;28;20200;-82
2022/11/25 11:49:03;;;;;;;7.63;2.93;;;-10.30;99.90;;;;;;5088978;28;20635;-78
2022/11/25 11:52:00;;;;;;;9.10;2.87;;;-10.70;99.90;;;;;;5087188;28;20223;-79
2022/11/25 11:54:37;;;;;;;11.37;2.57;;;-9.70;99.90;;;;;;5103843;28;20849;-78
2022/11/25 11:57:12;;;;;;;12.17;3.20;;;-10.30;99.90;;;;;;5085242;28;20712;-79
2022/11/25 11:59:52;;;;;;;12.77;3.30;;;-10.20;99.90;;;;;;5092347;28;20201;-79
2022/11/25 12:02:58;;;;;;;8.50;4.03;;;-8.60;99.90;;;;;;5087043;28;20250;-82
2022/11/25 12:05:28;;;;;;;5.70;2.93;;;-8.80;99.90;;;;;;5079929;28;20196;-72
2022/11/25 12:08:25;;;;;;;12.83;3.23;;;-8.10;99.90;;;;;;5087937;28;20596;-84
2022/11/25 12:10:57;;;;;;;12.30;3.03;;;-8.90;99.90;;;;;;5092225;28;20180;-78
2022/11/25 12:14:05;;;;;;;10.53;3.47;;;-9.20;99.90;;;;;;5083612;28;20577;-82
2022/11/25 12:16:45;;;;;;;6.20;2.90;;;-11.00;99.90;;;;;;5088484;28;20267;-78
2022/11/25 12:19:17;;;;;;;7.90;3.20;;;-10.10;99.90;;;;;;5083737;28;20534;-80
2022/11/25 12:21:53;;;;;;;14.70;4.60;;;-9.70;99.90;;;;;;5089866;28;20185;-81
2022/11/25 12:24:44;;;;;;;10.20;4.10;;;-10.70;99.90;;;;;;5086805;28;20199;-79
2022/11/25 12:27:26;;;;;;;10.33;3.53;;;-9.70;99.90;;;;;;5085976;28;20262;-80
2022/11/25 12:30:02;;;;;;;11.37;3.40;;;-8.80;99.90;;;;;;5089178;28;20230;-83
2022/11/25 12:32:37;;;;;;;8.87;3.20;;;-8.30;99.90;;;;;;5088875;28;20435;-79
2022/11/25 12:35:09;;;;;;;14.17;3.70;;;-8.30;99.90;;;;;;5083946;28;20203;-80
2022/11/25 12:37:46;;;;;;;6.67;3.47;;;-10.30;99.90;;;;;;5081966;28;20197;-84
2022/11/25 12:40:44;;;;;;;11.53;3.53;;;-10.30;99.90;;;;;;5086062;28;20185;-78
2022/11/25 12:43:34;;;;;;;8.20;3.70;;;-10.30;99.90;;;;;;5082442;28;20208;-84
2022/11/25 12:46:14;;;;;;;9.03;3.40;;;-11.10;99.90;;;;;;5084297;28;20216;-80
2022/11/25 12:48:42;;;;;;;10.10;3.73;;;-10.80;99.90;;;;;;5082332;28;20261;-81
2022/11/25 12:51:35;;;;;;;5.60;3.43;;;-10.60;99.90;;;;;;5084609;28;20206;-75
2022/11/25 12:54:41;;;;;;;15.10;4.30;;;-9.90;99.90;;;;;;5091538;28;20283;-83
2022/11/25 12:57:48;;;;;;;11.50;2.87;;;-9.10;99.90;;;;;;5088534;28;20184;-82
2022/11/25 13:00:20;;;;;;;15.17;4.47;;;-9.50;99.90;;;;;;5094151;28;20177;-80
2022/11/25 13:03:00;;;;;;;14.57;4.27;;;-8.80;99.90;;;;;;5096267;28;20199;-79
2022/11/25 13:05:29;;;;;;;14.17;4.73;;;-8.60;99.90;;;;;;5094097;28;20589;-78